createdAt,value
2017-11-06T00:01:17.758Z,1.70
2017-11-06T00:03:47.702Z,1.60
2017-11-06T00:06:17.575Z,1.52
2017-11-06T00:08:50.611Z,1.90
2017-11-06T00:11:20.603Z,1.80
2017-11-06T00:13:51.055Z,2.10
2017-11-06T00:16:22.163Z,2.20
2017-11-06T00:18:51.995Z,1.90
2017-11-06T00:21:21.919Z,2.35
2017-11-06T00:23:54.565Z,1.90
2017-11-06T00:26:24.449Z,2.25
2017-11-06T00:28:58.189Z,2.53
2017-11-06T00:31:28.139Z,2.03
2017-11-06T00:33:58.018Z,2.17
2017-11-06T00:36:28.851Z,2.40
2017-11-06T00:38:58.816Z,2.00
2017-11-06T00:41:28.753Z,2.15
2017-11-06T00:43:58.609Z,2.08
2017-11-06T00:46:28.705Z,2.42
2017-11-06T00:48:59.036Z,2.70
2017-11-06T00:51:29.805Z,2.45
2017-11-06T00:54:00.971Z,2.50
2017-11-06T00:56:30.899Z,2.60
2017-11-06T00:59:00.957Z,3.20
2017-11-06T01:01:31.536Z,2.40
2017-11-06T01:04:01.384Z,2.42
2017-11-06T01:06:31.179Z,3.25
2017-11-06T01:09:01.241Z,2.60
2017-11-06T01:11:30.903Z,2.92
2017-11-06T01:14:02.444Z,2.72
2017-11-06T01:16:32.575Z,2.65
2017-11-06T01:19:04.136Z,3.12
2017-11-06T01:21:34.026Z,2.95
2017-11-06T01:24:03.886Z,3.00
2017-11-06T01:26:33.698Z,2.95
2017-11-06T01:29:03.925Z,2.97
2017-11-06T01:31:39.008Z,3.37
2017-11-06T01:34:08.839Z,3.08
2017-11-06T01:36:38.858Z,2.90
2017-11-06T01:39:09.723Z,2.70
2017-11-06T01:41:50.380Z,2.62
2017-11-06T01:44:22.786Z,2.50
2017-11-06T01:46:52.642Z,2.65
2017-11-06T01:49:23.084Z,2.65
2017-11-06T01:51:52.902Z,3.47
2017-11-06T01:54:22.794Z,3.05
2017-11-06T01:57:07.624Z,3.00
2017-11-06T01:59:37.498Z,2.95
2017-11-06T02:02:07.427Z,2.90
2017-11-06T02:04:37.348Z,2.70
2017-11-06T02:07:07.570Z,3.10
2017-11-06T02:09:37.394Z,3.60
2017-11-06T02:12:07.186Z,3.20
2017-11-06T02:14:37.094Z,3.22
2017-11-06T02:17:06.774Z,3.85
2017-11-06T02:19:36.629Z,2.90
2017-11-06T02:22:06.140Z,2.55
2017-11-06T02:24:35.383Z,2.92
2017-11-06T02:27:04.871Z,2.75
2017-11-06T02:29:34.372Z,2.95
2017-11-06T02:32:03.872Z,2.70
2017-11-06T02:34:33.951Z,2.30
2017-11-06T02:37:04.013Z,2.97
2017-11-06T02:39:33.731Z,2.95
2017-11-06T02:42:03.604Z,3.22
2017-11-06T02:44:33.431Z,3.45
2017-11-06T02:47:03.174Z,2.90
2017-11-06T02:49:33.914Z,2.90
2017-11-06T02:52:03.795Z,2.95
2017-11-06T02:54:33.785Z,2.72
2017-11-06T02:57:03.463Z,2.92
2017-11-06T02:59:33.185Z,2.70
2017-11-06T03:02:02.889Z,3.53
2017-11-06T03:04:32.708Z,3.08
2017-11-06T03:07:02.380Z,3.55
2017-11-06T03:09:32.494Z,3.10
2017-11-06T03:12:02.332Z,3.80
2017-11-06T03:14:32.144Z,4.07
2017-11-06T03:17:02.026Z,3.17
2017-11-06T03:19:31.830Z,4.05
2017-11-06T03:22:01.507Z,3.50
2017-11-06T03:24:31.382Z,3.40
2017-11-06T03:27:01.210Z,2.92
2017-11-06T03:29:31.018Z,3.95
2017-11-06T03:32:00.843Z,4.00
2017-11-06T03:38:31.849Z,3.58
2017-11-06T03:41:02.119Z,4.18
2017-11-06T03:43:31.894Z,4.07
2017-11-06T03:46:01.739Z,3.97
2017-11-06T03:48:31.647Z,4.20
2017-11-06T03:51:01.408Z,4.60
2017-11-06T03:53:31.080Z,4.22
2017-11-06T03:56:00.989Z,4.18
2017-11-06T03:58:31.231Z,4.40
2017-11-06T04:01:01.352Z,4.30
2017-11-06T04:03:31.532Z,3.78
2017-11-06T04:06:01.343Z,3.90
2017-11-06T04:08:31.205Z,4.00
2017-11-06T04:11:01.044Z,4.97
2017-11-06T04:13:30.911Z,5.10
2017-11-06T04:16:01.563Z,4.18
2017-11-06T04:18:31.403Z,4.65
2017-11-06T04:21:01.276Z,4.45
2017-11-06T04:23:31.179Z,4.40
2017-11-06T04:26:01.041Z,5.10
2017-11-06T04:28:30.873Z,5.97
2017-11-06T04:31:01.042Z,5.90
2017-11-06T04:33:31.011Z,5.68
2017-11-06T04:36:00.680Z,5.40
2017-11-06T04:38:30.511Z,6.35
2017-11-06T04:41:00.433Z,6.35
2017-11-06T04:43:30.337Z,6.30
2017-11-06T04:46:00.772Z,5.85
2017-11-06T04:48:30.740Z,5.28
2017-11-06T04:51:01.575Z,5.32
2017-11-06T04:53:31.439Z,5.12
2017-11-06T04:56:01.392Z,4.85
2017-11-06T04:58:31.314Z,5.87
2017-11-06T05:01:01.161Z,5.78
2017-11-06T05:03:31.032Z,5.72
2017-11-06T05:06:00.908Z,5.10
2017-11-06T05:08:30.800Z,5.07
2017-11-06T05:11:00.740Z,5.47
2017-11-06T05:13:30.699Z,5.72
2017-11-06T05:16:00.542Z,5.60
2017-11-06T05:18:30.584Z,5.32
2017-11-06T05:21:00.462Z,5.32
2017-11-06T05:23:30.244Z,5.75
2017-11-06T05:26:00.090Z,5.43
2017-11-06T05:28:29.883Z,6.00
2017-11-06T05:30:59.792Z,6.07
2017-11-06T05:33:30.103Z,5.65
2017-11-06T05:35:59.861Z,6.30
2017-11-06T05:38:29.552Z,5.10
2017-11-06T05:40:59.216Z,5.28
2017-11-06T05:43:29.027Z,5.03
2017-11-06T05:45:58.835Z,5.15
2017-11-06T05:48:28.579Z,4.90
2017-11-06T05:50:58.391Z,4.68
2017-11-06T05:53:28.090Z,4.65
2017-11-06T05:55:57.862Z,5.15
2017-11-06T05:58:29.178Z,5.95
2017-11-06T06:00:59.746Z,5.45
2017-11-06T06:03:29.530Z,4.85
2017-11-06T06:05:59.377Z,6.15
2017-11-06T06:08:29.210Z,6.50
2017-11-06T06:10:58.983Z,5.78
2017-11-06T06:13:29.788Z,6.00
2017-11-06T06:15:59.552Z,5.75
2017-11-06T06:18:29.387Z,5.87
2017-11-06T06:20:59.193Z,6.25
2017-11-06T06:23:28.957Z,6.20
2017-11-06T06:25:58.844Z,6.05
2017-11-06T06:28:28.611Z,6.60
2017-11-06T06:30:58.437Z,6.78
2017-11-06T06:33:28.205Z,6.72
2017-11-06T06:35:59.001Z,5.95
2017-11-06T06:38:28.842Z,6.22
2017-11-06T06:40:58.281Z,6.28
2017-11-06T06:43:28.062Z,5.97
2017-11-06T06:45:57.802Z,5.68
2017-11-06T06:48:39.757Z,5.68
2017-11-06T06:51:24.867Z,7.03
2017-11-06T06:53:55.538Z,4.05
2017-11-06T06:56:25.279Z,4.47
2017-11-06T06:58:54.881Z,3.78
2017-11-06T07:01:24.628Z,3.60
2017-11-06T07:03:54.407Z,4.82
2017-11-06T07:06:28.213Z,4.93
2017-11-06T07:08:58.048Z,4.22
2017-11-06T07:11:27.994Z,4.32
2017-11-06T07:13:57.384Z,4.15
2017-11-06T07:16:27.145Z,3.80
2017-11-06T07:18:57.454Z,4.40
2017-11-06T07:21:27.736Z,4.68
2017-11-06T07:23:57.477Z,4.60
2017-11-06T07:26:27.238Z,4.50
2017-11-06T07:28:57.049Z,4.53
2017-11-06T07:31:26.789Z,5.60
2017-11-06T07:33:56.884Z,4.43
2017-11-06T07:36:26.513Z,4.35
2017-11-06T07:38:56.253Z,5.30
2017-11-06T07:41:26.114Z,4.50
2017-11-06T07:43:56.378Z,3.97
2017-11-06T07:46:26.142Z,5.03
2017-11-06T07:48:55.880Z,5.07
2017-11-06T07:51:25.664Z,6.32
2017-11-06T07:53:59.916Z,5.10
2017-11-06T07:56:29.695Z,5.50
2017-11-06T07:58:59.456Z,5.07
2017-11-06T08:01:29.320Z,5.50
2017-11-06T08:03:59.760Z,6.10
2017-11-06T08:06:29.950Z,5.70
2017-11-06T08:08:59.785Z,6.40
2017-11-06T08:11:29.597Z,4.45
2017-11-06T08:13:59.588Z,4.82
2017-11-06T08:16:29.345Z,4.65
2017-11-06T08:18:59.130Z,5.05
2017-11-06T08:21:28.847Z,5.30
2017-11-06T08:23:59.166Z,5.50
2017-11-06T08:26:29.038Z,5.60
2017-11-06T08:28:58.806Z,4.95
2017-11-06T08:31:28.558Z,4.50
2017-11-06T08:33:58.195Z,5.12
2017-11-06T08:36:27.962Z,4.65
2017-11-06T08:38:57.714Z,5.28
2017-11-06T08:41:28.760Z,4.85
2017-11-06T08:43:59.085Z,5.00
2017-11-06T08:46:28.846Z,5.65
2017-11-06T08:48:59.324Z,4.57
2017-11-06T08:51:29.090Z,4.85
2017-11-06T08:53:58.819Z,2.95
2017-11-06T08:56:28.654Z,3.37
2017-11-06T08:58:58.742Z,3.42
2017-11-06T09:01:28.494Z,3.20
2017-11-06T09:03:58.404Z,3.72
2017-11-06T09:06:28.147Z,3.65
2017-11-06T09:08:57.938Z,2.92
2017-11-06T09:11:27.696Z,3.40
2017-11-06T09:13:57.681Z,3.35
2017-11-06T09:16:27.489Z,3.20
2017-11-06T09:18:57.304Z,3.10
2017-11-06T09:21:27.431Z,3.00
2017-11-06T09:23:57.215Z,3.10
2017-11-06T09:26:26.985Z,3.60
2017-11-06T09:28:56.911Z,3.40
2017-11-06T09:31:26.802Z,3.50
2017-11-06T09:33:56.432Z,3.25
2017-11-06T09:36:26.219Z,3.62
2017-11-06T09:38:55.970Z,3.62
2017-11-06T09:41:25.775Z,3.67
2017-11-06T09:43:55.610Z,3.30
2017-11-06T09:46:25.469Z,3.58
2017-11-06T09:48:55.217Z,3.67
2017-11-06T09:51:25.164Z,3.53
2017-11-06T09:53:54.938Z,2.95
2017-11-06T09:56:24.699Z,3.53
2017-11-06T09:58:54.780Z,4.62
2017-11-06T10:01:24.651Z,3.53
2017-11-06T10:03:54.502Z,4.03
2017-11-06T10:06:24.100Z,3.40
2017-11-06T10:08:53.919Z,3.92
2017-11-06T10:11:23.484Z,3.28
2017-11-06T10:13:53.433Z,3.58
2017-11-06T10:16:23.216Z,3.58
2017-11-06T10:18:53.015Z,3.28
2017-11-06T10:21:22.585Z,3.12
2017-11-06T10:23:52.341Z,3.33
2017-11-06T10:26:22.123Z,3.25
2017-11-06T10:28:52.666Z,3.75
2017-11-06T10:31:22.445Z,3.60
2017-11-06T10:33:52.528Z,3.40
2017-11-06T10:36:22.628Z,3.22
2017-11-06T10:38:52.539Z,2.80
2017-11-06T10:41:22.299Z,3.90
2017-11-06T10:43:52.056Z,3.45
2017-11-06T10:46:21.837Z,3.45
2017-11-06T10:48:53.173Z,3.72
2017-11-06T10:51:23.064Z,3.05
2017-11-06T10:53:53.257Z,3.25
2017-11-06T10:56:22.649Z,3.87
2017-11-06T10:58:52.397Z,3.35
2017-11-06T11:01:22.172Z,3.47
2017-11-06T11:03:51.734Z,3.00
2017-11-06T11:06:21.478Z,3.47
2017-11-06T11:08:51.254Z,3.42
2017-11-06T11:11:25.205Z,3.78
2017-11-06T11:13:54.968Z,3.70
2017-11-06T11:16:24.746Z,3.70
2017-11-06T11:18:54.135Z,3.35
2017-11-06T11:21:23.891Z,3.10
2017-11-06T11:23:53.633Z,3.30
2017-11-06T11:26:23.379Z,3.30
2017-11-06T11:28:53.995Z,3.20
2017-11-06T11:31:23.765Z,3.50
2017-11-06T11:33:53.196Z,3.70
2017-11-06T11:36:22.980Z,3.50
2017-11-06T11:38:52.734Z,3.67
2017-11-06T11:41:22.952Z,3.70
2017-11-06T11:43:52.818Z,3.78
2017-11-06T11:46:22.638Z,4.05
2017-11-06T11:48:52.795Z,5.40
2017-11-06T11:51:22.555Z,3.42
2017-11-06T11:53:52.359Z,3.95
2017-11-06T11:56:22.131Z,3.20
2017-11-06T11:58:51.951Z,3.17
2017-11-06T12:01:21.770Z,3.22
2017-11-06T12:03:51.554Z,4.25
2017-11-06T12:06:21.277Z,4.20
2017-11-06T12:08:51.036Z,3.70
2017-11-06T12:11:20.770Z,3.35
2017-11-06T12:13:51.171Z,3.17
2017-11-06T12:16:21.041Z,3.90
2017-11-06T12:18:50.790Z,3.75
2017-11-06T12:21:20.511Z,3.75
2017-11-06T12:23:50.284Z,3.42
2017-11-06T12:26:19.849Z,3.37
2017-11-06T12:28:49.615Z,3.70
2017-11-06T12:31:19.773Z,3.83
2017-11-06T12:33:49.595Z,4.05
2017-11-06T12:36:19.328Z,4.53
2017-11-06T12:38:49.090Z,3.80
2017-11-06T12:41:18.853Z,4.53
2017-11-06T12:43:48.643Z,4.18
2017-11-06T12:46:18.419Z,5.75
2017-11-06T12:48:48.177Z,4.65
2017-11-06T12:51:17.922Z,3.90
2017-11-06T12:53:48.608Z,4.20
2017-11-06T12:56:18.613Z,5.22
2017-11-06T12:58:48.382Z,4.40
2017-11-06T13:01:18.177Z,5.10
2017-11-06T13:03:47.966Z,5.32
2017-11-06T13:06:17.735Z,5.40
2017-11-06T13:08:47.498Z,6.03
2017-11-06T13:11:17.605Z,6.05
2017-11-06T13:13:47.557Z,6.22
2017-11-06T13:16:17.303Z,5.72
2017-11-06T13:18:47.116Z,5.95
2017-11-06T13:21:16.893Z,5.45
2017-11-06T13:23:46.642Z,5.90
2017-11-06T13:26:16.961Z,6.57
2017-11-06T13:28:46.505Z,6.50
2017-11-06T13:31:16.303Z,6.72
2017-11-06T13:33:46.076Z,7.18
2017-11-06T13:36:15.807Z,6.55
2017-11-06T13:38:45.617Z,7.37
2017-11-06T13:41:15.340Z,6.87
2017-11-06T13:43:45.293Z,6.65
2017-11-06T13:46:15.055Z,7.82
2017-11-06T13:48:44.804Z,7.65
2017-11-06T13:51:14.560Z,7.10
2017-11-06T13:53:44.323Z,6.87
2017-11-06T13:56:14.079Z,6.45
2017-11-06T13:58:43.818Z,6.40
2017-11-06T14:01:13.599Z,6.50
2017-11-06T14:03:43.346Z,6.82
2017-11-06T14:06:13.185Z,8.13
2017-11-06T14:08:42.938Z,7.22
2017-11-06T14:11:12.470Z,7.00
2017-11-06T14:13:42.232Z,7.53
2017-11-06T14:16:11.983Z,7.10
2017-11-06T14:18:41.585Z,7.45
2017-11-06T14:21:11.329Z,7.20
2017-11-06T14:23:41.090Z,8.40
2017-11-06T14:26:10.831Z,7.62
2017-11-06T14:28:40.619Z,8.27
2017-11-06T14:31:10.416Z,9.10
2017-11-06T14:33:40.154Z,8.20
2017-11-06T14:36:09.917Z,9.13
2017-11-06T14:38:39.474Z,10.05
2017-11-06T14:41:08.957Z,9.35
2017-11-06T14:43:38.730Z,11.68
2017-11-06T14:46:08.531Z,10.18
2017-11-06T14:48:38.923Z,10.57
2017-11-06T14:51:08.699Z,10.93
2017-11-06T14:53:38.620Z,10.30
2017-11-06T14:56:08.505Z,10.27
2017-11-06T14:58:38.261Z,8.98
2017-11-06T15:01:07.932Z,10.25
2017-11-06T15:03:37.730Z,9.63
2017-11-06T15:06:07.529Z,9.80
2017-11-06T15:08:37.289Z,10.23
2017-11-06T15:11:07.731Z,10.23
2017-11-06T15:13:37.498Z,9.77
2017-11-06T15:16:06.709Z,9.50
2017-11-06T15:18:36.202Z,9.90
2017-11-06T15:21:06.027Z,9.65
2017-11-06T15:23:35.406Z,8.38
2017-11-06T15:26:05.225Z,9.70
2017-11-06T15:28:35.145Z,8.95
2017-11-06T15:31:04.893Z,7.95
2017-11-06T15:33:34.763Z,9.15
2017-11-06T15:36:04.551Z,8.95
2017-11-06T15:38:34.303Z,10.25
2017-11-06T15:41:04.071Z,10.23
2017-11-06T15:43:33.820Z,9.90
2017-11-06T15:46:04.019Z,9.40
2017-11-06T15:48:33.819Z,10.00
2017-11-06T15:51:04.132Z,9.40
2017-11-06T15:53:33.881Z,9.30
2017-11-06T15:56:03.978Z,9.77
2017-11-06T15:58:33.817Z,10.45
2017-11-06T16:01:03.662Z,11.95
2017-11-06T16:03:33.458Z,12.32
2017-11-06T16:06:07.226Z,12.05
2017-11-06T16:08:37.037Z,10.88
2017-11-06T16:11:07.082Z,10.85
2017-11-06T16:13:36.879Z,11.30
2017-11-06T16:16:06.948Z,11.48
2017-11-06T16:18:36.780Z,10.55
2017-11-06T16:21:06.567Z,11.68
2017-11-06T16:23:36.333Z,12.50
2017-11-06T16:26:06.561Z,11.55
2017-11-06T16:28:36.356Z,12.82
2017-11-06T16:31:06.114Z,11.65
2017-11-06T16:33:35.963Z,11.32
2017-11-06T16:36:05.801Z,10.52
2017-11-06T16:38:35.562Z,11.15
2017-11-06T16:41:05.421Z,10.90
2017-11-06T16:43:35.162Z,11.35
2017-11-06T16:46:04.921Z,11.23
2017-11-06T16:48:34.697Z,10.48
2017-11-06T16:51:04.483Z,10.57
2017-11-06T16:53:34.320Z,9.95
2017-11-06T16:56:04.096Z,10.23
2017-11-06T16:58:33.875Z,11.77
2017-11-06T17:01:03.637Z,10.30
2017-11-06T17:03:33.395Z,10.00
2017-11-06T17:06:03.478Z,10.32
2017-11-06T17:08:33.225Z,9.73
2017-11-06T17:11:03.029Z,9.10
2017-11-06T17:13:32.841Z,10.05
2017-11-06T17:16:02.353Z,9.48
2017-11-06T17:18:32.130Z,9.82
2017-11-06T17:21:02.126Z,10.85
2017-11-06T17:23:31.894Z,11.10
2017-11-06T17:26:01.733Z,9.20
2017-11-06T17:28:31.602Z,10.25
2017-11-06T17:31:01.390Z,8.73
2017-11-06T17:33:31.160Z,10.00
2017-11-06T17:36:00.914Z,9.35
2017-11-06T17:38:30.694Z,7.68
2017-11-06T17:41:00.580Z,7.40
2017-11-06T17:43:30.391Z,7.43
2017-11-06T17:46:00.166Z,7.40
2017-11-06T17:48:29.889Z,8.60
2017-11-06T17:50:59.691Z,6.70
2017-11-06T17:53:29.471Z,6.18
2017-11-06T17:55:59.241Z,7.65
2017-11-06T17:58:29.890Z,7.22
2017-11-06T18:00:59.634Z,6.85
2017-11-06T18:03:29.777Z,7.25
2017-11-06T18:05:59.596Z,6.53
2017-11-06T18:08:34.575Z,6.60
2017-11-06T18:11:04.423Z,7.07
2017-11-06T18:13:34.251Z,6.75
2017-11-06T18:16:04.768Z,7.12
2017-11-06T18:18:35.251Z,6.20
2017-11-06T18:21:05.651Z,6.55
2017-11-06T18:23:35.540Z,5.75
2017-11-06T18:29:30.130Z,6.15
2017-11-06T18:32:10.827Z,7.05
2017-11-06T18:34:40.998Z,7.50
2017-11-06T18:37:11.315Z,7.10
2017-11-06T18:39:41.199Z,7.40
2017-11-06T18:42:10.970Z,8.00
2017-11-06T18:44:40.880Z,6.70
2017-11-06T18:47:10.775Z,7.18
2017-11-06T18:52:14.628Z,6.65
2017-11-06T18:54:44.486Z,6.35
2017-11-06T18:57:14.236Z,6.68
2017-11-06T18:59:44.016Z,5.90
2017-11-06T19:02:13.860Z,7.53
2017-11-06T19:04:43.702Z,6.87
2017-11-06T19:07:13.487Z,6.45
2017-11-06T19:09:43.325Z,7.35
2017-11-06T19:12:13.255Z,7.50
2017-11-06T19:14:43.622Z,7.78
2017-11-06T19:17:13.595Z,7.55
2017-11-06T19:19:43.579Z,7.47
2017-11-06T19:22:13.382Z,8.20
2017-11-06T19:24:43.495Z,7.45
2017-11-06T19:27:13.327Z,8.13
2017-11-06T19:29:43.331Z,9.02
2017-11-06T19:32:14.085Z,8.32
2017-11-06T19:34:44.438Z,8.38
2017-11-06T19:39:49.252Z,7.60
2017-11-06T19:42:19.416Z,8.18
2017-11-06T19:44:50.021Z,8.93
2017-11-06T19:47:19.989Z,7.78
2017-11-06T19:49:50.200Z,8.32
2017-11-06T19:52:20.169Z,7.97
2017-11-06T19:54:50.180Z,7.75
2017-11-06T19:57:20.137Z,8.10
2017-11-06T19:59:49.958Z,7.70
2017-11-06T20:02:20.077Z,7.10
2017-11-06T20:04:50.086Z,7.20
2017-11-06T20:07:19.921Z,7.47
2017-11-06T20:09:50.790Z,7.10
2017-11-06T20:12:20.628Z,8.70
2017-11-06T20:14:50.571Z,7.72
2017-11-06T20:17:20.541Z,9.27
2017-11-06T20:19:50.512Z,9.23
2017-11-06T20:22:21.119Z,9.70
2017-11-06T20:24:51.142Z,8.88
2017-11-06T20:27:21.259Z,9.48
2017-11-06T20:29:51.360Z,9.65
2017-11-06T20:32:21.428Z,8.90
2017-11-06T20:34:51.145Z,8.50
2017-11-06T20:37:21.210Z,8.50
2017-11-06T20:39:51.715Z,7.95
2017-11-06T20:42:21.613Z,9.35
2017-11-06T20:44:55.680Z,8.75
2017-11-06T20:47:25.431Z,8.45
2017-11-06T20:49:59.368Z,8.38
2017-11-06T20:52:29.169Z,9.73
2017-11-06T20:54:58.964Z,10.77
2017-11-06T20:57:30.976Z,10.40
2017-11-06T21:02:45.153Z,11.48
2017-11-06T21:05:15.592Z,10.25
2017-11-06T21:07:46.225Z,9.68
2017-11-06T21:10:16.205Z,9.43
2017-11-06T21:12:46.076Z,9.57
2017-11-06T21:15:15.942Z,10.40
2017-11-06T21:17:45.732Z,10.05
2017-11-06T21:20:15.493Z,9.15
2017-11-06T21:22:45.591Z,9.40
2017-11-06T21:25:15.567Z,10.05
2017-11-06T21:27:45.597Z,9.05
2017-11-06T21:33:23.020Z,10.43
2017-11-06T21:35:52.865Z,10.55
2017-11-06T21:38:22.702Z,10.80
2017-11-06T21:40:52.568Z,11.05
2017-11-06T21:43:22.448Z,11.20
2017-11-06T21:45:52.290Z,9.05
2017-11-06T21:48:21.900Z,8.80
2017-11-06T21:50:52.919Z,11.38
2017-11-06T21:53:22.779Z,9.70
2017-11-06T21:55:52.538Z,10.05
2017-11-06T21:58:22.310Z,10.32
2017-11-06T22:00:52.110Z,8.63
2017-11-06T22:03:21.951Z,8.40
2017-11-06T22:05:51.717Z,9.63
2017-11-06T22:08:21.547Z,8.57
2017-11-06T22:10:51.361Z,9.32
2017-11-06T22:13:21.271Z,9.05
2017-11-06T22:15:50.723Z,9.32
2017-11-06T22:18:20.551Z,9.40
2017-11-06T22:20:50.037Z,8.88
2017-11-06T22:23:19.787Z,9.05
2017-11-06T22:25:48.962Z,8.32
2017-11-06T22:28:18.940Z,9.35
2017-11-06T22:30:48.388Z,9.52
2017-11-06T22:33:18.166Z,10.30
2017-11-06T22:35:48.072Z,9.80
2017-11-06T22:38:17.987Z,9.10
2017-11-06T22:40:47.697Z,8.93
2017-11-06T22:43:17.576Z,10.50
2017-11-06T22:45:47.256Z,9.50
2017-11-06T22:48:17.071Z,10.32
2017-11-06T22:50:46.693Z,10.88
2017-11-06T22:53:16.488Z,10.90
2017-11-06T22:55:46.371Z,10.32
2017-11-06T22:58:16.149Z,10.75
2017-11-06T23:00:46.025Z,10.77
2017-11-06T23:03:15.569Z,10.07
2017-11-06T23:05:45.383Z,10.98
2017-11-06T23:08:15.324Z,10.85
2017-11-06T23:10:45.116Z,11.20
2017-11-06T23:13:14.901Z,10.43
2017-11-06T23:15:44.453Z,12.23
2017-11-06T23:18:14.238Z,10.60
2017-11-06T23:20:44.059Z,11.80
2017-11-06T23:23:13.835Z,11.68
2017-11-06T23:25:43.644Z,10.38
2017-11-06T23:28:13.983Z,11.43
2017-11-06T23:30:43.943Z,10.23
2017-11-06T23:33:13.741Z,10.63
2017-11-06T23:35:43.329Z,10.68
2017-11-06T23:38:13.107Z,11.23
2017-11-06T23:40:42.870Z,10.50
2017-11-06T23:43:12.642Z,10.15
2017-11-06T23:45:42.278Z,11.40
2017-11-06T23:48:11.878Z,11.18
2017-11-06T23:50:41.486Z,11.20
2017-11-06T23:53:11.308Z,11.73
2017-11-06T23:55:41.156Z,10.23
2017-11-06T23:58:10.762Z,11.02
